sensor_id;sensor_type;location;lat;lon;timestamp;P1;durP1;ratioP1;P2;durP2;ratioP2
38397;SDS011;24179;52.094;4.408;2024-02-28T00:01:16;8.83;;;4.80;;
38397;SDS011;24179;52.094;4.408;2024-02-28T00:04:17;8.07;;;4.60;;
38397;SDS011;24179;52.094;4.408;2024-02-28T00:07:18;13.05;;;5.20;;
38397;SDS011;24179;52.094;4.408;2024-02-28T00:10:19;9.47;;;4.87;;
38397;SDS011;24179;52.094;4.408;2024-02-28T00:13:21;9.52;;;4.50;;
38397;SDS011;24179;52.094;4.408;2024-02-28T00:16:23;9.25;;;4.72;;
38397;SDS011;24179;52.094;4.408;2024-02-28T00:19:23;7.83;;;4.33;;
38397;SDS011;24179;52.094;4.408;2024-02-28T00:25:25;7.80;;;4.40;;
38397;SDS011;24179;52.094;4.408;2024-02-28T00:28:26;8.27;;;4.40;;
38397;SDS011;24179;52.094;4.408;2024-02-28T00:31:26;6.83;;;4.20;;
38397;SDS011;24179;52.094;4.408;2024-02-28T00:34:27;8.30;;;4.33;;
38397;SDS011;24179;52.094;4.408;2024-02-28T00:37:28;6.20;;;4.23;;
38397;SDS011;24179;52.094;4.408;2024-02-28T00:40:28;6.87;;;4.57;;
38397;SDS011;24179;52.094;4.408;2024-02-28T00:43:29;10.27;;;5.07;;
38397;SDS011;24179;52.094;4.408;2024-02-28T00:46:29;8.90;;;4.77;;
38397;SDS011;24179;52.094;4.408;2024-02-28T00:49:30;8.53;;;3.97;;
38397;SDS011;24179;52.094;4.408;2024-02-28T00:52:31;7.73;;;4.50;;
38397;SDS011;24179;52.094;4.408;2024-02-28T00:55:32;6.95;;;4.32;;
38397;SDS011;24179;52.094;4.408;2024-02-28T00:58:32;9.73;;;5.20;;
38397;SDS011;24179;52.094;4.408;2024-02-28T01:01:33;9.70;;;4.43;;
38397;SDS011;24179;52.094;4.408;2024-02-28T01:04:34;7.83;;;4.23;;
38397;SDS011;24179;52.094;4.408;2024-02-28T01:07:34;9.30;;;4.40;;
38397;SDS011;24179;52.094;4.408;2024-02-28T01:10:35;11.70;;;4.80;;
38397;SDS011;24179;52.094;4.408;2024-02-28T01:16:37;10.43;;;4.20;;
38397;SDS011;24179;52.094;4.408;2024-02-28T01:19:37;9.63;;;4.53;;
38397;SDS011;24179;52.094;4.408;2024-02-28T01:22:38;7.23;;;4.13;;
38397;SDS011;24179;52.094;4.408;2024-02-28T01:25:39;8.47;;;4.73;;
38397;SDS011;24179;52.094;4.408;2024-02-28T01:28:39;8.67;;;4.53;;
38397;SDS011;24179;52.094;4.408;2024-02-28T01:31:43;7.68;;;4.20;;
38397;SDS011;24179;52.094;4.408;2024-02-28T01:34:43;8.10;;;4.50;;
38397;SDS011;24179;52.094;4.408;2024-02-28T01:37:44;7.93;;;5.03;;
38397;SDS011;24179;52.094;4.408;2024-02-28T01:40:45;10.17;;;4.33;;
38397;SDS011;24179;52.094;4.408;2024-02-28T01:43:46;9.40;;;4.20;;
38397;SDS011;24179;52.094;4.408;2024-02-28T01:46:47;8.73;;;4.37;;
38397;SDS011;24179;52.094;4.408;2024-02-28T01:49:47;7.47;;;4.38;;
38397;SDS011;24179;52.094;4.408;2024-02-28T01:52:50;9.77;;;4.90;;
38397;SDS011;24179;52.094;4.408;2024-02-28T01:55:51;9.30;;;4.85;;
38397;SDS011;24179;52.094;4.408;2024-02-28T01:58:52;7.18;;;4.50;;
38397;SDS011;24179;52.094;4.408;2024-02-28T02:01:55;14.65;;;5.20;;
38397;SDS011;24179;52.094;4.408;2024-02-28T02:04:56;7.80;;;4.80;;
38397;SDS011;24179;52.094;4.408;2024-02-28T02:07:57;13.65;;;4.90;;
38397;SDS011;24179;52.094;4.408;2024-02-28T02:10:59;8.02;;;4.72;;
38397;SDS011;24179;52.094;4.408;2024-02-28T02:14:00;12.27;;;5.40;;
38397;SDS011;24179;52.094;4.408;2024-02-28T02:17:01;12.37;;;4.90;;
38397;SDS011;24179;52.094;4.408;2024-02-28T02:20:02;12.70;;;5.17;;
38397;SDS011;24179;52.094;4.408;2024-02-28T02:23:03;14.82;;;5.13;;
38397;SDS011;24179;52.094;4.408;2024-02-28T02:26:04;8.63;;;4.75;;
38397;SDS011;24179;52.094;4.408;2024-02-28T02:29:05;17.70;;;6.13;;
38397;SDS011;24179;52.094;4.408;2024-02-28T02:32:05;7.73;;;4.50;;
38397;SDS011;24179;52.094;4.408;2024-02-28T02:35:06;11.63;;;4.90;;
38397;SDS011;24179;52.094;4.408;2024-02-28T02:38:07;8.07;;;4.70;;
38397;SDS011;24179;52.094;4.408;2024-02-28T02:41:08;11.30;;;5.23;;
38397;SDS011;24179;52.094;4.408;2024-02-28T02:44:08;14.27;;;6.33;;
38397;SDS011;24179;52.094;4.408;2024-02-28T02:47:09;8.93;;;5.87;;
38397;SDS011;24179;52.094;4.408;2024-02-28T02:50:10;14.90;;;6.90;;
38397;SDS011;24179;52.094;4.408;2024-02-28T02:53:10;18.70;;;6.88;;
38397;SDS011;24179;52.094;4.408;2024-02-28T02:56:11;18.30;;;6.67;;
38397;SDS011;24179;52.094;4.408;2024-02-28T02:59:11;16.40;;;6.97;;
38397;SDS011;24179;52.094;4.408;2024-02-28T03:02:12;12.13;;;6.95;;
38397;SDS011;24179;52.094;4.408;2024-02-28T03:05:13;16.50;;;7.00;;
38397;SDS011;24179;52.094;4.408;2024-02-28T03:08:14;16.37;;;7.00;;
38397;SDS011;24179;52.094;4.408;2024-02-28T03:11:15;16.00;;;7.35;;
38397;SDS011;24179;52.094;4.408;2024-02-28T03:14:15;13.57;;;6.80;;
38397;SDS011;24179;52.094;4.408;2024-02-28T03:17:16;13.43;;;7.80;;
38397;SDS011;24179;52.094;4.408;2024-02-28T03:20:17;17.00;;;7.73;;
38397;SDS011;24179;52.094;4.408;2024-02-28T03:23:17;21.17;;;8.37;;
38397;SDS011;24179;52.094;4.408;2024-02-28T03:26:18;14.47;;;7.30;;
38397;SDS011;24179;52.094;4.408;2024-02-28T03:29:18;17.47;;;7.70;;
38397;SDS011;24179;52.094;4.408;2024-02-28T03:32:19;13.00;;;8.30;;
38397;SDS011;24179;52.094;4.408;2024-02-28T03:35:19;18.60;;;8.27;;
38397;SDS011;24179;52.094;4.408;2024-02-28T03:38:20;15.10;;;7.27;;
38397;SDS011;24179;52.094;4.408;2024-02-28T03:41:21;18.83;;;8.43;;
38397;SDS011;24179;52.094;4.408;2024-02-28T03:44:22;21.40;;;8.88;;
38397;SDS011;24179;52.094;4.408;2024-02-28T03:47:22;17.87;;;8.13;;
38397;SDS011;24179;52.094;4.408;2024-02-28T03:50:24;19.52;;;9.20;;
38397;SDS011;24179;52.094;4.408;2024-02-28T03:53:24;25.83;;;9.23;;
38397;SDS011;24179;52.094;4.408;2024-02-28T03:56:25;18.17;;;8.73;;
38397;SDS011;24179;52.094;4.408;2024-02-28T03:59:26;19.20;;;9.05;;
38397;SDS011;24179;52.094;4.408;2024-02-28T04:02:27;18.23;;;8.43;;
38397;SDS011;24179;52.094;4.408;2024-02-28T04:05:27;14.63;;;8.00;;
38397;SDS011;24179;52.094;4.408;2024-02-28T04:08:28;27.20;;;10.10;;
38397;SDS011;24179;52.094;4.408;2024-02-28T04:11:28;23.20;;;8.70;;
38397;SDS011;24179;52.094;4.408;2024-02-28T04:14:29;22.20;;;8.63;;
38397;SDS011;24179;52.094;4.408;2024-02-28T04:17:30;19.30;;;8.50;;
38397;SDS011;24179;52.094;4.408;2024-02-28T04:20:30;23.07;;;9.33;;
38397;SDS011;24179;52.094;4.408;2024-02-28T04:23:31;24.50;;;9.80;;
38397;SDS011;24179;52.094;4.408;2024-02-28T04:26:31;18.10;;;8.77;;
38397;SDS011;24179;52.094;4.408;2024-02-28T04:29:32;22.13;;;9.37;;
38397;SDS011;24179;52.094;4.408;2024-02-28T04:32:32;19.00;;;10.17;;
38397;SDS011;24179;52.094;4.408;2024-02-28T04:35:35;18.50;;;9.40;;
38397;SDS011;24179;52.094;4.408;2024-02-28T04:38:36;22.00;;;9.27;;
38397;SDS011;24179;52.094;4.408;2024-02-28T04:41:36;26.07;;;9.27;;
38397;SDS011;24179;52.094;4.408;2024-02-28T04:44:37;24.13;;;10.07;;
38397;SDS011;24179;52.094;4.408;2024-02-28T04:47:38;26.33;;;11.25;;
38397;SDS011;24179;52.094;4.408;2024-02-28T04:50:38;25.77;;;10.50;;
38397;SDS011;24179;52.094;4.408;2024-02-28T04:53:39;22.77;;;9.63;;
38397;SDS011;24179;52.094;4.408;2024-02-28T04:56:40;21.67;;;9.57;;
38397;SDS011;24179;52.094;4.408;2024-02-28T04:59:42;20.10;;;8.63;;
38397;SDS011;24179;52.094;4.408;2024-02-28T05:02:44;21.15;;;9.57;;
38397;SDS011;24179;52.094;4.408;2024-02-28T05:05:44;18.50;;;9.57;;
38397;SDS011;24179;52.094;4.408;2024-02-28T05:08:45;23.80;;;9.90;;
38397;SDS011;24179;52.094;4.408;2024-02-28T05:11:45;21.07;;;9.97;;
38397;SDS011;24179;52.094;4.408;2024-02-28T05:14:46;18.20;;;9.03;;
38397;SDS011;24179;52.094;4.408;2024-02-28T05:17:47;23.03;;;10.20;;
38397;SDS011;24179;52.094;4.408;2024-02-28T05:20:51;25.20;;;10.75;;
38397;SDS011;24179;52.094;4.408;2024-02-28T05:23:51;28.47;;;11.10;;
38397;SDS011;24179;52.094;4.408;2024-02-28T05:26:52;28.50;;;11.73;;
38397;SDS011;24179;52.094;4.408;2024-02-28T05:29:53;25.80;;;10.60;;
38397;SDS011;24179;52.094;4.408;2024-02-28T05:32:53;28.37;;;12.13;;
38397;SDS011;24179;52.094;4.408;2024-02-28T05:35:54;24.15;;;11.07;;
38397;SDS011;24179;52.094;4.408;2024-02-28T05:38:55;26.80;;;11.50;;
38397;SDS011;24179;52.094;4.408;2024-02-28T05:41:57;24.35;;;11.02;;
38397;SDS011;24179;52.094;4.408;2024-02-28T05:44:57;32.27;;;12.90;;
38397;SDS011;24179;52.094;4.408;2024-02-28T05:47:58;32.37;;;12.80;;
38397;SDS011;24179;52.094;4.408;2024-02-28T05:51:00;31.83;;;12.00;;
38397;SDS011;24179;52.094;4.408;2024-02-28T05:54:01;27.75;;;12.70;;
38397;SDS011;24179;52.094;4.408;2024-02-28T05:57:02;31.43;;;12.93;;
38397;SDS011;24179;52.094;4.408;2024-02-28T06:00:03;25.63;;;12.52;;
38397;SDS011;24179;52.094;4.408;2024-02-28T06:03:09;35.97;;;14.02;;
38397;SDS011;24179;52.094;4.408;2024-02-28T06:06:10;28.97;;;12.47;;
38397;SDS011;24179;52.094;4.408;2024-02-28T06:09:11;24.43;;;12.10;;
38397;SDS011;24179;52.094;4.408;2024-02-28T06:12:11;33.70;;;13.70;;
38397;SDS011;24179;52.094;4.408;2024-02-28T06:15:12;31.83;;;13.83;;
38397;SDS011;24179;52.094;4.408;2024-02-28T06:18:12;29.07;;;13.43;;
38397;SDS011;24179;52.094;4.408;2024-02-28T06:21:13;28.53;;;13.57;;
38397;SDS011;24179;52.094;4.408;2024-02-28T06:24:14;28.83;;;14.32;;
38397;SDS011;24179;52.094;4.408;2024-02-28T06:27:15;36.00;;;13.97;;
38397;SDS011;24179;52.094;4.408;2024-02-28T06:30:16;26.80;;;13.05;;
38397;SDS011;24179;52.094;4.408;2024-02-28T06:33:17;29.92;;;13.38;;
38397;SDS011;24179;52.094;4.408;2024-02-28T06:36:18;30.05;;;13.77;;
38397;SDS011;24179;52.094;4.408;2024-02-28T06:39:19;32.90;;;14.17;;
38397;SDS011;24179;52.094;4.408;2024-02-28T06:42:19;28.20;;;13.97;;
38397;SDS011;24179;52.094;4.408;2024-02-28T06:45:22;29.60;;;14.20;;
38397;SDS011;24179;52.094;4.408;2024-02-28T06:48:23;31.87;;;14.00;;
38397;SDS011;24179;52.094;4.408;2024-02-28T06:51:23;25.30;;;13.77;;
38397;SDS011;24179;52.094;4.408;2024-02-28T06:54:24;31.67;;;14.67;;
38397;SDS011;24179;52.094;4.408;2024-02-28T06:57:24;29.03;;;13.93;;
38397;SDS011;24179;52.094;4.408;2024-02-28T07:00:25;26.63;;;12.87;;
38397;SDS011;24179;52.094;4.408;2024-02-28T07:03:25;31.00;;;13.37;;
38397;SDS011;24179;52.094;4.408;2024-02-28T07:06:26;25.37;;;12.97;;
38397;SDS011;24179;52.094;4.408;2024-02-28T07:09:26;27.23;;;14.27;;
38397;SDS011;24179;52.094;4.408;2024-02-28T07:12:31;35.83;;;14.15;;
38397;SDS011;24179;52.094;4.408;2024-02-28T07:15:31;29.93;;;13.57;;
38397;SDS011;24179;52.094;4.408;2024-02-28T07:18:32;29.80;;;14.40;;
38397;SDS011;24179;52.094;4.408;2024-02-28T07:21:33;32.47;;;14.68;;
38397;SDS011;24179;52.094;4.408;2024-02-28T07:24:36;32.42;;;13.93;;
38397;SDS011;24179;52.094;4.408;2024-02-28T07:27:37;29.80;;;13.43;;
38397;SDS011;24179;52.094;4.408;2024-02-28T07:30:38;31.17;;;13.50;;
38397;SDS011;24179;52.094;4.408;2024-02-28T07:33:39;30.35;;;13.82;;
38397;SDS011;24179;52.094;4.408;2024-02-28T07:36:40;36.97;;;14.68;;
38397;SDS011;24179;52.094;4.408;2024-02-28T07:39:41;38.77;;;14.70;;
38397;SDS011;24179;52.094;4.408;2024-02-28T07:42:41;37.40;;;14.90;;
38397;SDS011;24179;52.094;4.408;2024-02-28T07:45:42;26.20;;;14.03;;
38397;SDS011;24179;52.094;4.408;2024-02-28T07:48:42;31.47;;;14.17;;
38397;SDS011;24179;52.094;4.408;2024-02-28T07:51:43;33.33;;;15.00;;
38397;SDS011;24179;52.094;4.408;2024-02-28T07:54:43;27.80;;;13.70;;
38397;SDS011;24179;52.094;4.408;2024-02-28T07:57:44;31.13;;;14.20;;
38397;SDS011;24179;52.094;4.408;2024-02-28T08:00:45;32.70;;;13.60;;
38397;SDS011;24179;52.094;4.408;2024-02-28T08:03:45;31.80;;;14.20;;
38397;SDS011;24179;52.094;4.408;2024-02-28T08:06:46;32.43;;;13.90;;
38397;SDS011;24179;52.094;4.408;2024-02-28T08:09:46;39.93;;;16.23;;
38397;SDS011;24179;52.094;4.408;2024-02-28T08:12:47;32.77;;;14.30;;
38397;SDS011;24179;52.094;4.408;2024-02-28T08:15:47;31.33;;;14.17;;
38397;SDS011;24179;52.094;4.408;2024-02-28T08:18:48;31.53;;;13.80;;
38397;SDS011;24179;52.094;4.408;2024-02-28T08:21:49;29.93;;;13.30;;
38397;SDS011;24179;52.094;4.408;2024-02-28T08:24:51;35.93;;;15.80;;
38397;SDS011;24179;52.094;4.408;2024-02-28T08:27:52;45.78;;;16.20;;
38397;SDS011;24179;52.094;4.408;2024-02-28T08:30:52;44.80;;;17.50;;
38397;SDS011;24179;52.094;4.408;2024-02-28T08:33:53;34.23;;;15.73;;
38397;SDS011;24179;52.094;4.408;2024-02-28T08:36:55;38.40;;;16.17;;
38397;SDS011;24179;52.094;4.408;2024-02-28T08:39:55;36.83;;;15.23;;
38397;SDS011;24179;52.094;4.408;2024-02-28T08:42:58;43.42;;;17.35;;
38397;SDS011;24179;52.094;4.408;2024-02-28T08:45:58;34.47;;;15.73;;
38397;SDS011;24179;52.094;4.408;2024-02-28T08:48:59;37.90;;;16.30;;
38397;SDS011;24179;52.094;4.408;2024-02-28T08:51:59;45.07;;;17.70;;
38397;SDS011;24179;52.094;4.408;2024-02-28T08:55:00;36.50;;;16.67;;
38397;SDS011;24179;52.094;4.408;2024-02-28T08:58:00;41.10;;;17.37;;
38397;SDS011;24179;52.094;4.408;2024-02-28T09:01:01;35.37;;;17.37;;
38397;SDS011;24179;52.094;4.408;2024-02-28T09:04:02;37.70;;;17.03;;
38397;SDS011;24179;52.094;4.408;2024-02-28T09:07:03;39.00;;;16.48;;
38397;SDS011;24179;52.094;4.408;2024-02-28T09:10:04;37.33;;;16.40;;
38397;SDS011;24179;52.094;4.408;2024-02-28T09:13:06;45.97;;;18.00;;
38397;SDS011;24179;52.094;4.408;2024-02-28T09:16:06;38.20;;;17.38;;
38397;SDS011;24179;52.094;4.408;2024-02-28T09:19:07;35.10;;;16.37;;
38397;SDS011;24179;52.094;4.408;2024-02-28T09:22:08;40.28;;;17.60;;
38397;SDS011;24179;52.094;4.408;2024-02-28T09:25:08;40.17;;;17.53;;
38397;SDS011;24179;52.094;4.408;2024-02-28T09:28:09;42.97;;;18.27;;
38397;SDS011;24179;52.094;4.408;2024-02-28T09:31:12;41.88;;;17.45;;
38397;SDS011;24179;52.094;4.408;2024-02-28T09:34:15;42.53;;;17.63;;
38397;SDS011;24179;52.094;4.408;2024-02-28T09:37:16;34.10;;;16.60;;
38397;SDS011;24179;52.094;4.408;2024-02-28T09:40:21;38.03;;;17.80;;
38397;SDS011;24179;52.094;4.408;2024-02-28T09:43:24;42.33;;;17.20;;
38397;SDS011;24179;52.094;4.408;2024-02-28T09:46:29;40.60;;;17.27;;
38397;SDS011;24179;52.094;4.408;2024-02-28T09:49:32;38.05;;;18.00;;
38397;SDS011;24179;52.094;4.408;2024-02-28T09:52:34;40.10;;;17.10;;
38397;SDS011;24179;52.094;4.408;2024-02-28T09:55:35;36.35;;;17.30;;
38397;SDS011;24179;52.094;4.408;2024-02-28T09:58:35;37.17;;;16.23;;
38397;SDS011;24179;52.094;4.408;2024-02-28T10:01:42;44.50;;;18.85;;
38397;SDS011;24179;52.094;4.408;2024-02-28T10:04:44;46.80;;;18.63;;
38397;SDS011;24179;52.094;4.408;2024-02-28T10:07:45;43.20;;;18.73;;
38397;SDS011;24179;52.094;4.408;2024-02-28T10:10:47;49.67;;;20.20;;
38397;SDS011;24179;52.094;4.408;2024-02-28T10:13:48;43.60;;;18.58;;
38397;SDS011;24179;52.094;4.408;2024-02-28T10:19:52;54.78;;;21.27;;
38397;SDS011;24179;52.094;4.408;2024-02-28T10:22:52;51.95;;;21.30;;
38397;SDS011;24179;52.094;4.408;2024-02-28T10:25:53;56.08;;;22.70;;
38397;SDS011;24179;52.094;4.408;2024-02-28T10:28:54;51.77;;;21.70;;
38397;SDS011;24179;52.094;4.408;2024-02-28T10:31:57;58.20;;;21.67;;
38397;SDS011;24179;52.094;4.408;2024-02-28T10:34:58;49.55;;;21.25;;
38397;SDS011;24179;52.094;4.408;2024-02-28T10:41:00;54.27;;;20.90;;
38397;SDS011;24179;52.094;4.408;2024-02-28T10:44:02;51.15;;;20.52;;
38397;SDS011;24179;52.094;4.408;2024-02-28T10:47:04;55.88;;;21.63;;
38397;SDS011;24179;52.094;4.408;2024-02-28T10:50:08;50.67;;;21.08;;
38397;SDS011;24179;52.094;4.408;2024-02-28T10:53:11;44.75;;;19.35;;
38397;SDS011;24179;52.094;4.408;2024-02-28T10:56:14;54.15;;;20.63;;
38397;SDS011;24179;52.094;4.408;2024-02-28T10:59:16;48.67;;;19.05;;
38397;SDS011;24179;52.094;4.408;2024-02-28T11:02:16;45.87;;;19.60;;
38397;SDS011;24179;52.094;4.408;2024-02-28T11:05:17;58.90;;;23.50;;
38397;SDS011;24179;52.094;4.408;2024-02-28T11:08:22;52.17;;;21.70;;
38397;SDS011;24179;52.094;4.408;2024-02-28T11:11:23;53.97;;;22.45;;
38397;SDS011;24179;52.094;4.408;2024-02-28T11:14:24;54.77;;;22.00;;
38397;SDS011;24179;52.094;4.408;2024-02-28T11:17:26;42.53;;;19.70;;
38397;SDS011;24179;52.094;4.408;2024-02-28T11:20:33;54.03;;;21.75;;
38397;SDS011;24179;52.094;4.408;2024-02-28T11:23:37;49.25;;;21.35;;
38397;SDS011;24179;52.094;4.408;2024-02-28T11:26:41;51.78;;;21.30;;
38397;SDS011;24179;52.094;4.408;2024-02-28T11:29:42;45.47;;;20.50;;
38397;SDS011;24179;52.094;4.408;2024-02-28T11:32:45;44.30;;;19.40;;
38397;SDS011;24179;52.094;4.408;2024-02-28T11:35:53;42.07;;;17.90;;
38397;SDS011;24179;52.094;4.408;2024-02-28T11:38:55;43.78;;;19.80;;
38397;SDS011;24179;52.094;4.408;2024-02-28T11:45:10;43.67;;;21.85;;
38397;SDS011;24179;52.094;4.408;2024-02-28T11:48:11;53.67;;;22.15;;
38397;SDS011;24179;52.094;4.408;2024-02-28T11:51:12;49.80;;;22.27;;
38397;SDS011;24179;52.094;4.408;2024-02-28T11:54:12;46.47;;;20.00;;
38397;SDS011;24179;52.094;4.408;2024-02-28T11:57:13;47.17;;;21.00;;
38397;SDS011;24179;52.094;4.408;2024-02-28T12:00:17;52.47;;;21.70;;
38397;SDS011;24179;52.094;4.408;2024-02-28T12:03:21;46.27;;;19.20;;
38397;SDS011;24179;52.094;4.408;2024-02-28T12:06:23;45.08;;;19.95;;
38397;SDS011;24179;52.094;4.408;2024-02-28T12:09:23;50.28;;;21.02;;
38397;SDS011;24179;52.094;4.408;2024-02-28T12:12:24;50.97;;;19.87;;
38397;SDS011;24179;52.094;4.408;2024-02-28T12:15:25;61.83;;;23.00;;
38397;SDS011;24179;52.094;4.408;2024-02-28T12:18:26;48.23;;;21.07;;
38397;SDS011;24179;52.094;4.408;2024-02-28T12:21:28;62.45;;;23.38;;
38397;SDS011;24179;52.094;4.408;2024-02-28T12:24:28;60.53;;;22.87;;
38397;SDS011;24179;52.094;4.408;2024-02-28T12:27:29;66.37;;;23.57;;
38397;SDS011;24179;52.094;4.408;2024-02-28T12:30:31;64.38;;;25.00;;
38397;SDS011;24179;52.094;4.408;2024-02-28T12:33:31;67.07;;;24.93;;
38397;SDS011;24179;52.094;4.408;2024-02-28T12:36:32;65.60;;;26.13;;
38397;SDS011;24179;52.094;4.408;2024-02-28T12:39:34;63.15;;;23.60;;
38397;SDS011;24179;52.094;4.408;2024-02-28T12:42:34;62.40;;;22.97;;
38397;SDS011;24179;52.094;4.408;2024-02-28T12:45:36;59.83;;;23.10;;
38397;SDS011;24179;52.094;4.408;2024-02-28T12:48:37;64.70;;;24.13;;
38397;SDS011;24179;52.094;4.408;2024-02-28T12:51:42;56.50;;;21.23;;
38397;SDS011;24179;52.094;4.408;2024-02-28T12:54:45;57.72;;;22.10;;
38397;SDS011;24179;52.094;4.408;2024-02-28T12:57:45;61.97;;;24.67;;
38397;SDS011;24179;52.094;4.408;2024-02-28T13:00:46;51.60;;;19.50;;
38397;SDS011;24179;52.094;4.408;2024-02-28T13:03:46;60.23;;;22.47;;
38397;SDS011;24179;52.094;4.408;2024-02-28T13:06:48;63.67;;;21.92;;
38397;SDS011;24179;52.094;4.408;2024-02-28T13:09:49;48.87;;;20.10;;
38397;SDS011;24179;52.094;4.408;2024-02-28T13:12:49;52.23;;;20.70;;
38397;SDS011;24179;52.094;4.408;2024-02-28T13:15:50;67.20;;;24.37;;
38397;SDS011;24179;52.094;4.408;2024-02-28T13:18:50;48.53;;;20.60;;
38397;SDS011;24179;52.094;4.408;2024-02-28T13:21:51;59.13;;;23.20;;
38397;SDS011;24179;52.094;4.408;2024-02-28T13:24:52;50.77;;;21.17;;
38397;SDS011;24179;52.094;4.408;2024-02-28T13:27:52;52.50;;;21.17;;
38397;SDS011;24179;52.094;4.408;2024-02-28T13:30:53;43.73;;;19.60;;
38397;SDS011;24179;52.094;4.408;2024-02-28T13:33:53;46.73;;;19.97;;
38397;SDS011;24179;52.094;4.408;2024-02-28T13:36:54;48.33;;;20.33;;
38397;SDS011;24179;52.094;4.408;2024-02-28T13:39:55;40.78;;;18.88;;
38397;SDS011;24179;52.094;4.408;2024-02-28T13:42:56;59.33;;;22.30;;
38397;SDS011;24179;52.094;4.408;2024-02-28T13:45:58;48.80;;;20.67;;
38397;SDS011;24179;52.094;4.408;2024-02-28T13:49:00;43.78;;;19.65;;
38397;SDS011;24179;52.094;4.408;2024-02-28T13:52:01;53.13;;;22.47;;
38397;SDS011;24179;52.094;4.408;2024-02-28T13:55:01;50.07;;;21.00;;
38397;SDS011;24179;52.094;4.408;2024-02-28T13:58:02;44.47;;;19.20;;
38397;SDS011;24179;52.094;4.408;2024-02-28T14:01:03;52.97;;;21.13;;
38397;SDS011;24179;52.094;4.408;2024-02-28T14:04:06;47.67;;;20.58;;
38397;SDS011;24179;52.094;4.408;2024-02-28T14:07:07;44.57;;;20.30;;
38397;SDS011;24179;52.094;4.408;2024-02-28T14:10:07;47.37;;;21.33;;
38397;SDS011;24179;52.094;4.408;2024-02-28T14:13:11;61.42;;;23.20;;
38397;SDS011;24179;52.094;4.408;2024-02-28T14:16:12;43.70;;;20.80;;
38397;SDS011;24179;52.094;4.408;2024-02-28T14:19:13;54.30;;;22.90;;
38397;SDS011;24179;52.094;4.408;2024-02-28T14:22:13;55.00;;;22.47;;
38397;SDS011;24179;52.094;4.408;2024-02-28T14:25:15;50.90;;;22.37;;
38397;SDS011;24179;52.094;4.408;2024-02-28T14:28:16;51.08;;;21.58;;
38397;SDS011;24179;52.094;4.408;2024-02-28T14:31:19;49.38;;;21.25;;
38397;SDS011;24179;52.094;4.408;2024-02-28T14:34:20;46.55;;;21.85;;
38397;SDS011;24179;52.094;4.408;2024-02-28T14:37:20;52.23;;;20.87;;
38397;SDS011;24179;52.094;4.408;2024-02-28T14:40:21;51.73;;;23.20;;
38397;SDS011;24179;52.094;4.408;2024-02-28T14:43:21;52.17;;;22.67;;
38397;SDS011;24179;52.094;4.408;2024-02-28T14:46:22;47.63;;;22.77;;
38397;SDS011;24179;52.094;4.408;2024-02-28T14:49:23;49.97;;;22.33;;
38397;SDS011;24179;52.094;4.408;2024-02-28T14:52:23;46.57;;;20.77;;
38397;SDS011;24179;52.094;4.408;2024-02-28T14:55:25;54.63;;;22.42;;
38397;SDS011;24179;52.094;4.408;2024-02-28T14:58:25;45.53;;;20.63;;
38397;SDS011;24179;52.094;4.408;2024-02-28T15:01:26;44.77;;;20.00;;
38397;SDS011;24179;52.094;4.408;2024-02-28T15:04:28;46.03;;;21.17;;
38397;SDS011;24179;52.094;4.408;2024-02-28T15:07:29;47.70;;;20.75;;
38397;SDS011;24179;52.094;4.408;2024-02-28T15:10:29;43.23;;;19.63;;
38397;SDS011;24179;52.094;4.408;2024-02-28T15:13:30;44.03;;;19.13;;
38397;SDS011;24179;52.094;4.408;2024-02-28T15:16:31;37.70;;;17.92;;
38397;SDS011;24179;52.094;4.408;2024-02-28T15:19:31;35.10;;;17.10;;
38397;SDS011;24179;52.094;4.408;2024-02-28T15:22:32;35.73;;;16.50;;
38397;SDS011;24179;52.094;4.408;2024-02-28T15:25:33;33.70;;;16.58;;
38397;SDS011;24179;52.094;4.408;2024-02-28T15:28:34;39.20;;;18.63;;
38397;SDS011;24179;52.094;4.408;2024-02-28T15:31:34;33.40;;;17.13;;
38397;SDS011;24179;52.094;4.408;2024-02-28T15:34:37;32.15;;;16.27;;
38397;SDS011;24179;52.094;4.408;2024-02-28T15:37:39;28.77;;;15.35;;
38397;SDS011;24179;52.094;4.408;2024-02-28T15:40:39;27.20;;;14.67;;
38397;SDS011;24179;52.094;4.408;2024-02-28T15:43:40;36.70;;;17.57;;
38397;SDS011;24179;52.094;4.408;2024-02-28T15:46:40;30.97;;;15.77;;
38397;SDS011;24179;52.094;4.408;2024-02-28T15:49:41;32.43;;;16.10;;
38397;SDS011;24179;52.094;4.408;2024-02-28T15:52:42;34.93;;;15.83;;
38397;SDS011;24179;52.094;4.408;2024-02-28T15:55:42;37.03;;;17.73;;
38397;SDS011;24179;52.094;4.408;2024-02-28T15:58:43;31.47;;;15.67;;
38397;SDS011;24179;52.094;4.408;2024-02-28T16:01:43;33.47;;;16.60;;
38397;SDS011;24179;52.094;4.408;2024-02-28T16:04:44;38.13;;;17.70;;
38397;SDS011;24179;52.094;4.408;2024-02-28T16:07:45;25.67;;;14.40;;
38397;SDS011;24179;52.094;4.408;2024-02-28T16:10:45;34.17;;;16.87;;
38397;SDS011;24179;52.094;4.408;2024-02-28T16:13:46;34.73;;;17.07;;
38397;SDS011;24179;52.094;4.408;2024-02-28T16:16:48;28.73;;;15.35;;
38397;SDS011;24179;52.094;4.408;2024-02-28T16:19:49;32.00;;;15.45;;
38397;SDS011;24179;52.094;4.408;2024-02-28T16:22:50;30.53;;;16.33;;
38397;SDS011;24179;52.094;4.408;2024-02-28T16:25:50;35.90;;;16.20;;
38397;SDS011;24179;52.094;4.408;2024-02-28T16:28:55;28.55;;;15.63;;
38397;SDS011;24179;52.094;4.408;2024-02-28T16:31:57;28.48;;;14.45;;
38397;SDS011;24179;52.094;4.408;2024-02-28T16:34:58;26.67;;;14.77;;
38397;SDS011;24179;52.094;4.408;2024-02-28T16:37:58;30.07;;;14.60;;
38397;SDS011;24179;52.094;4.408;2024-02-28T16:40:59;27.87;;;14.17;;
38397;SDS011;24179;52.094;4.408;2024-02-28T16:44:00;26.58;;;13.63;;
38397;SDS011;24179;52.094;4.408;2024-02-28T16:47:03;25.80;;;13.48;;
38397;SDS011;24179;52.094;4.408;2024-02-28T16:50:03;23.50;;;13.05;;
38397;SDS011;24179;52.094;4.408;2024-02-28T16:53:04;25.70;;;13.43;;
38397;SDS011;24179;52.094;4.408;2024-02-28T16:56:05;24.87;;;13.17;;
38397;SDS011;24179;52.094;4.408;2024-02-28T16:59:06;25.43;;;11.93;;
38397;SDS011;24179;52.094;4.408;2024-02-28T17:02:06;22.13;;;11.70;;
38397;SDS011;24179;52.094;4.408;2024-02-28T17:05:07;21.58;;;11.63;;
38397;SDS011;24179;52.094;4.408;2024-02-28T17:08:10;22.02;;;10.95;;
38397;SDS011;24179;52.094;4.408;2024-02-28T17:11:11;21.57;;;11.13;;
38397;SDS011;24179;52.094;4.408;2024-02-28T17:14:12;22.33;;;11.55;;
38397;SDS011;24179;52.094;4.408;2024-02-28T17:17:13;11.25;;;8.48;;
38397;SDS011;24179;52.094;4.408;2024-02-28T17:20:18;24.88;;;11.52;;
38397;SDS011;24179;52.094;4.408;2024-02-28T17:23:20;16.55;;;8.98;;
38397;SDS011;24179;52.094;4.408;2024-02-28T17:26:20;19.63;;;9.53;;
38397;SDS011;24179;52.094;4.408;2024-02-28T17:29:21;18.70;;;9.07;;
38397;SDS011;24179;52.094;4.408;2024-02-28T17:32:27;24.10;;;9.93;;
38397;SDS011;24179;52.094;4.408;2024-02-28T17:35:27;22.20;;;10.33;;
38397;SDS011;24179;52.094;4.408;2024-02-28T17:38:28;21.37;;;9.60;;
38397;SDS011;24179;52.094;4.408;2024-02-28T17:41:29;14.70;;;8.13;;
38397;SDS011;24179;52.094;4.408;2024-02-28T17:44:30;14.80;;;8.27;;
38397;SDS011;24179;52.094;4.408;2024-02-28T17:47:31;19.10;;;8.80;;
38397;SDS011;24179;52.094;4.408;2024-02-28T17:50:32;14.93;;;8.43;;
38397;SDS011;24179;52.094;4.408;2024-02-28T17:53:33;19.25;;;9.00;;
38397;SDS011;24179;52.094;4.408;2024-02-28T17:56:34;10.95;;;6.65;;
38397;SDS011;24179;52.094;4.408;2024-02-28T17:59:34;10.63;;;6.73;;